Time;durP1;ratioP1;P1;durP2;ratioP2;P2;SDS_P1;SDS_P2;PMS_P1;PMS_P2;Temp;Humidity;BMP_temperature;BMP_pressure;BME280_temperature;BME280_humidity;BME280_pressure;Samples;Min_cycle;Max_cycle;Signal;HPM_P1;HPM_P2
2021/12/18 00:02:18;;;;;;;6.97;3.90;;;;;;;12.75;49.85;103074.72;5096882;28;20561;-69
2021/12/18 00:04:44;;;;;;;6.35;3.65;;;;;;;12.80;49.56;103071.78;5096321;28;20123;-70
2021/12/18 00:07:11;;;;;;;8.13;4.38;;;;;;;12.77;49.58;103074.63;5096504;28;20560;-70
2021/12/18 00:09:37;;;;;;;7.10;4.80;;;;;;;12.79;49.91;103065.56;5095725;28;20074;-70
2021/12/18 00:12:04;;;;;;;6.72;3.88;;;;;;;12.80;49.73;103072.63;5093964;28;20419;-71
2021/12/18 00:14:31;;;;;;;9.68;4.78;;;;;;;12.72;50.35;103068.69;5095901;28;20044;-70
2021/12/18 00:16:57;;;;;;;9.52;4.95;;;;;;;12.86;49.96;103066.06;5096631;28;20127;-71
2021/12/18 00:19:26;;;;;;;7.53;4.32;;;;;;;12.69;50.29;103063.53;5116468;28;20367;-70
2021/12/18 00:21:55;;;;;;;8.95;5.15;;;;;;;12.59;50.66;103066.72;5116514;28;20048;-70
2021/12/18 00:24:24;;;;;;;7.90;4.45;;;;;;;12.84;50.37;103063.47;5117208;28;20459;-70
2021/12/18 00:26:50;;;;;;;10.85;5.28;;;;;;;12.77;50.36;103066.59;5115274;28;20213;-70
2021/12/18 00:29:17;;;;;;;9.25;4.95;;;;;;;12.68;50.70;103056.44;5116599;28;20071;-70
2021/12/18 00:31:44;;;;;;;10.25;4.72;;;;;;;12.61;50.81;103062.16;5116634;28;20106;-71
2021/12/18 00:34:10;;;;;;;8.75;4.38;;;;;;;12.79;50.52;103057.53;5114981;28;20063;-71
2021/12/18 00:36:36;;;;;;;11.20;5.40;;;;;;;12.23;51.53;103052.84;5116087;28;20130;-70
2021/12/18 00:39:03;;;;;;;10.20;4.15;;;;;;;12.53;51.03;103043.00;5114801;28;20119;-70
2021/12/18 00:44:01;;;;;;;7.15;3.88;;;;;;;12.41;51.30;103049.09;5113215;28;20441;-70
2021/12/18 00:46:30;;;;;;;11.15;4.30;;;;;;;12.63;50.71;103042.47;5115315;28;20060;-70
2021/12/18 00:48:57;;;;;;;8.85;4.75;;;;;;;12.78;50.60;103047.78;5115072;28;20050;-70
2021/12/18 00:51:24;;;;;;;10.23;5.18;;;;;;;12.76;50.53;103040.78;5113703;28;20079;-70
2021/12/18 00:53:51;;;;;;;10.70;4.95;;;;;;;12.74;50.73;103053.41;5114302;28;20054;-70
2021/12/18 00:56:18;;;;;;;9.93;4.13;;;;;;;12.66;50.99;103047.66;5113914;28;20045;-70
2021/12/18 00:58:45;;;;;;;9.60;4.15;;;;;;;12.67;50.71;103054.72;5113787;28;20111;-70
2021/12/18 01:01:12;;;;;;;10.65;5.00;;;;;;;12.86;50.70;103066.06;5113621;28;20126;-71
2021/12/18 01:03:40;;;;;;;10.25;4.85;;;;;;;12.80;50.47;103066.41;5113264;28;20394;-72
2021/12/18 01:06:07;;;;;;;6.25;4.07;;;;;;;12.74;50.86;103067.63;5115843;28;20043;-71
2021/12/18 01:08:33;;;;;;;7.75;4.50;;;;;;;12.66;51.26;103055.69;5115084;28;20069;-70
2021/12/18 01:11:22;;;;;;;13.25;4.70;;;;;;;12.05;52.45;103057.38;5115445;28;20126;-70
2021/12/18 01:14:07;;;;;;;8.32;4.82;;;;;;;12.63;51.20;103069.22;5115143;28;20503;-70
2021/12/18 01:24:31;;;;;;;8.00;4.28;;;;;;;12.79;50.85;103078.09;5104968;28;20115;-70
2021/12/18 01:26:58;;;;;;;8.05;3.88;;;;;;;12.85;50.84;103080.41;5116413;28;20483;-71
2021/12/18 01:29:25;;;;;;;9.30;4.50;;;;;;;12.79;50.98;103081.63;5114818;28;20092;-70
2021/12/18 01:31:51;;;;;;;6.53;4.05;;;;;;;12.64;51.38;103070.94;5114487;28;20126;-70
2021/12/18 01:34:17;;;;;;;9.00;4.25;;;;;;;12.87;51.04;103075.81;5114359;28;20463;-70
2021/12/18 01:36:44;;;;;;;6.65;3.88;;;;;;;12.83;50.89;103066.25;5114805;28;20163;-69
2021/12/18 01:39:10;;;;;;;9.27;4.05;;;;;;;12.77;51.41;103067.44;5116200;28;20458;-69
2021/12/18 01:41:56;;;;;;;8.38;4.45;;;;;;;12.60;52.18;103056.88;5114789;28;20065;-69
2021/12/18 01:51:14;;;;;;;7.32;3.78;;;;;;;12.76;51.88;103048.81;5114569;28;20036;-69
2021/12/18 01:52:34;;;;;;;7.40;3.42;;;;;;;12.64;52.35;103034.34;5114716;28;20078;-70
2021/12/18 01:55:01;;;;;;;7.93;3.53;;;;;;;12.66;51.92;103031.59;5116587;28;20043;-70
2021/12/18 01:57:28;;;;;;;9.80;3.75;;;;;;;12.65;52.07;103024.53;5115485;28;20043;-70
2021/12/18 01:59:55;;;;;;;7.93;4.13;;;;;;;12.73;52.04;103028.44;5115874;28;20451;-70
2021/12/18 02:02:22;;;;;;;4.63;3.30;;;;;;;12.60;52.43;103028.31;5113671;28;20082;-70
2021/12/18 02:04:48;;;;;;;6.22;4.10;;;;;;;12.69;52.48;103026.06;5112859;28;20043;-70
2021/12/18 02:07:21;;;;;;;5.50;3.53;;;;;;;12.78;52.16;103022.81;5115397;28;20134;-70
2021/12/18 02:10:04;;;;;;;6.47;3.78;;;;;;;12.60;52.89;103022.97;5114568;28;20032;-69
2021/12/18 02:12:51;;;;;;;4.95;3.42;;;;;;;12.81;52.08;103027.97;5111442;28;20050;-69
2021/12/18 02:20:54;;;;;;;7.65;4.10;;;;;;;12.84;52.15;103038.50;5114887;28;20108;-70
2021/12/18 02:23:20;;;;;;;7.20;3.67;;;;;;;12.80;52.41;103043.19;5113546;28;20424;-70
2021/12/18 02:25:47;;;;;;;11.38;3.65;;;;;;;12.78;52.46;103041.53;5113558;28;20074;-70
2021/12/18 02:28:19;;;;;;;4.95;3.58;;;;;;;12.89;52.19;103036.44;5113219;28;20039;-70
2021/12/18 02:30:48;;;;;;;5.18;3.22;;;;;;;12.87;52.43;103035.66;5112909;28;20133;-70
2021/12/18 02:33:15;;;;;;;5.88;3.47;;;;;;;12.75;52.68;103036.41;5113035;28;20107;-70
2021/12/18 02:35:47;;;;;;;7.55;3.88;;;;;;;12.61;53.15;103027.38;5112366;28;20077;-70
2021/12/18 02:38:33;;;;;;;6.82;4.15;;;;;;;12.25;53.48;103033.06;5112186;28;20126;-69
2021/12/18 02:41:08;;;;;;;7.15;3.95;;;;;;;12.27;54.03;103035.66;5113095;28;20536;-70
2021/12/18 02:43:38;;;;;;;6.63;4.13;;;;;;;12.67;52.77;103035.97;5114503;28;20075;-70
2021/12/18 02:46:07;;;;;;;7.53;4.23;;;;;;;12.80;52.56;103028.94;5116228;28;20119;-70
2021/12/18 02:48:39;;;;;;;7.68;4.25;;;;;;;12.81;52.38;103022.63;5117287;28;20445;-70
2021/12/18 02:51:08;;;;;;;5.50;3.83;;;;;;;12.96;51.94;103019.03;5116906;28;20067;-70
2021/12/18 02:53:37;;;;;;;6.28;4.10;;;;;;;12.61;53.05;103029.19;5117696;28;20476;-70
2021/12/18 02:56:06;;;;;;;6.15;3.33;;;;;;;12.61;52.85;103024.69;5116488;28;20044;-70
2021/12/18 02:58:43;;;;;;;6.55;3.83;;;;;;;12.81;52.53;103027.97;5117859;28;20395;-70
2021/12/18 03:01:12;;;;;;;8.18;4.45;;;;;;;12.63;53.24;103019.25;5118441;28;20047;-70
2021/12/18 03:03:41;;;;;;;8.15;4.15;;;;;;;12.92;52.37;103020.19;5098511;28;20134;-70
2021/12/18 03:06:22;;;;;;;4.78;3.30;;;;;;;12.66;53.03;103026.25;5117563;28;20036;-71
2021/12/18 03:09:38;;;;;;;5.78;3.75;;;;;;;12.83;52.36;103015.38;5117871;28;20476;-70
2021/12/18 03:25:33;;;;;;;6.15;3.80;;;;;;;12.75;52.98;103004.28;5116047;28;20103;-70
2021/12/18 03:28:03;;;;;;;5.78;3.60;;;;;;;11.89;55.38;102999.47;5116543;28;20074;-70
2021/12/18 03:30:30;;;;;;;8.05;3.78;;;;;;;12.60;53.76;102995.34;5115893;28;20065;-70
2021/12/18 03:32:58;;;;;;;4.60;3.55;;;;;;;12.72;53.14;102983.06;5116557;28;20126;-70
2021/12/18 03:35:25;;;;;;;6.22;3.78;;;;;;;12.58;53.59;102986.56;5117970;28;20476;-70
2021/12/18 03:37:52;;;;;;;5.63;3.45;;;;;;;12.84;52.76;102988.50;5099794;28;20066;-70
2021/12/18 03:40:22;;;;;;;5.40;3.35;;;;;;;12.90;52.76;102986.44;5116702;28;20376;-70
2021/12/18 03:42:48;;;;;;;5.32;3.22;;;;;;;13.08;51.91;102996.84;5117699;28;20123;-70
2021/12/18 03:45:16;;;;;;;7.35;3.65;;;;;;;12.95;52.21;102987.00;5117396;28;20040;-70
2021/12/18 03:47:45;;;;;;;8.55;3.92;;;;;;;12.98;52.47;102981.44;5117259;28;20495;-70
2021/12/18 03:50:12;;;;;;;6.75;4.13;;;;;;;12.89;52.55;102979.38;5117323;28;20448;-70
2021/12/18 03:52:39;;;;;;;10.63;3.97;;;;;;;12.89;52.59;102985.56;5116591;28;20043;-70
2021/12/18 03:55:06;;;;;;;7.90;4.93;;;;;;;13.04;52.08;102984.63;5115867;28;20127;-70
2021/12/18 03:57:33;;;;;;;8.73;4.35;;;;;;;12.70;53.47;102985.81;5114535;28;20141;-70
2021/12/18 03:59:59;;;;;;;6.03;4.03;;;;;;;13.01;52.49;102986.63;5117085;28;20119;-70
2021/12/18 04:02:26;;;;;;;6.60;4.47;;;;;;;13.12;51.90;102991.31;5097856;28;20131;-70
2021/12/18 04:04:53;;;;;;;6.40;4.20;;;;;;;13.02;52.53;102986.53;5117508;28;20432;-70
2021/12/18 04:07:19;;;;;;;8.50;4.75;;;;;;;12.94;52.63;102982.59;5116092;28;20506;-70
2021/12/18 04:09:48;;;;;;;9.73;5.15;;;;;;;12.96;52.42;102986.91;5115304;28;20063;-70
2021/12/18 04:12:16;;;;;;;11.32;5.07;;;;;;;13.06;52.20;102987.22;5114202;28;20123;-70
2021/12/18 04:14:43;;;;;;;9.52;5.00;;;;;;;13.00;52.56;102985.78;5115952;28;20067;-70
2021/12/18 04:17:09;;;;;;;7.30;4.47;;;;;;;12.93;52.67;102987.09;5115606;28;20059;-70
2021/12/18 04:19:36;;;;;;;7.05;4.65;;;;;;;12.91;52.54;102988.16;5114707;28;20051;-70
2021/12/18 04:22:02;;;;;;;7.22;4.85;;;;;;;13.08;52.25;102985.28;5114189;28;20067;-70
2021/12/18 04:24:29;;;;;;;6.70;4.25;;;;;;;12.94;52.50;102983.47;5112672;28;20473;-70
2021/12/18 04:26:56;;;;;;;8.82;4.60;;;;;;;12.59;53.19;102989.13;5114530;28;20044;-70
2021/12/18 04:29:22;;;;;;;5.97;4.05;;;;;;;12.47;53.73;102989.88;5114498;28;20122;-70
2021/12/18 04:31:49;;;;;;;7.32;3.80;;;;;;;12.55;53.71;102992.94;5115482;28;20139;-70
2021/12/18 04:34:15;;;;;;;6.05;3.55;;;;;;;12.66;53.27;102986.09;5114404;28;20075;-70
2021/12/18 04:36:42;;;;;;;6.40;3.70;;;;;;;12.85;52.50;102984.03;5115832;28;20508;-70
2021/12/18 04:39:08;;;;;;;5.40;3.65;;;;;;;12.92;52.35;102988.06;5116534;28;20103;-70
2021/12/18 04:41:42;;;;;;;9.10;3.50;;;;;;;12.91;52.48;102982.78;5115905;28;20098;-70
2021/12/18 04:44:09;;;;;;;8.88;3.85;;;;;;;12.96;52.42;102978.88;5114059;27;20067;-70
2021/12/18 04:46:35;;;;;;;5.57;3.80;;;;;;;12.87;52.70;102987.47;5115512;28;20514;-70
2021/12/18 04:49:03;;;;;;;6.45;4.30;;;;;;;12.84;52.97;102982.31;5116531;28;20122;-70
2021/12/18 04:51:29;;;;;;;6.28;3.25;;;;;;;12.91;52.82;102980.97;5115289;27;20134;-70
2021/12/18 04:53:56;;;;;;;5.95;3.90;;;;;;;13.03;52.73;102985.59;5113077;28;20070;-71
2021/12/18 04:56:23;;;;;;;6.18;3.85;;;;;;;12.99;52.76;102977.81;5115486;28;20047;-71
2021/12/18 04:58:49;;;;;;;7.55;3.83;;;;;;;13.06;52.53;102977.38;5115738;28;20077;-71
2021/12/18 05:01:17;;;;;;;5.28;3.35;;;;;;;12.94;53.09;102978.09;5115734;28;20064;-71
2021/12/18 05:03:46;;;;;;;7.00;4.18;;;;;;;13.02;52.80;102973.16;5116444;28;20100;-71
2021/12/18 05:06:12;;;;;;;7.30;4.10;;;;;;;13.03;53.14;102972.19;5111884;28;20048;-71
2021/12/18 05:08:39;;;;;;;6.57;4.32;;;;;;;12.84;53.11;102971.59;5113067;28;20063;-71
2021/12/18 05:11:05;;;;;;;5.38;3.30;;;;;;;13.09;52.67;102973.59;5112497;28;20130;-71
2021/12/18 05:13:32;;;;;;;6.95;4.00;;;;;;;13.05;52.93;102970.25;5112163;28;20491;-71
2021/12/18 05:15:59;;;;;;;6.25;4.00;;;;;;;12.99;53.12;102968.00;5113442;28;20126;-70
2021/12/18 05:18:25;;;;;;;6.50;4.20;;;;;;;12.96;53.24;102976.22;5114259;28;20411;-70
2021/12/18 05:20:52;;;;;;;5.93;3.80;;;;;;;13.00;53.12;102975.06;5112090;28;20047;-70
2021/12/18 05:23:18;;;;;;;5.65;3.72;;;;;;;13.06;52.95;102972.00;5113617;28;20132;-70
2021/12/18 05:25:45;;;;;;;5.32;3.80;;;;;;;13.05;53.01;102972.94;5114314;28;20551;-71
2021/12/18 05:28:11;;;;;;;5.75;3.95;;;;;;;13.09;52.96;102982.53;5113396;28;20078;-71
2021/12/18 05:30:38;;;;;;;5.20;3.30;;;;;;;13.12;53.14;102976.09;5114544;28;20049;-70
2021/12/18 05:33:04;;;;;;;6.43;3.67;;;;;;;13.08;53.46;102985.28;5114387;28;20126;-70
2021/12/18 05:35:31;;;;;;;7.05;4.15;;;;;;;13.15;53.08;102980.41;5114214;28;20066;-70
2021/12/18 05:38:04;;;;;;;7.13;3.83;;;;;;;13.04;53.46;102973.91;5114317;28;20089;-70
2021/12/18 05:40:33;;;;;;;6.13;4.00;;;;;;;13.08;53.57;102971.91;5114022;28;20047;-70
2021/12/18 05:42:59;;;;;;;5.18;3.72;;;;;;;13.17;53.32;102973.16;5114717;28;20074;-70
2021/12/18 05:45:25;;;;;;;7.65;4.55;;;;;;;13.08;53.68;102970.06;5115253;28;20056;-70
2021/12/18 05:47:52;;;;;;;7.97;4.30;;;;;;;12.38;55.62;102969.88;5095024;28;20053;-70
2021/12/18 05:50:21;;;;;;;6.20;4.22;;;;;;;12.97;54.05;102971.72;5115227;28;20103;-70
2021/12/18 05:52:48;;;;;;;5.47;3.70;;;;;;;12.82;54.34;102962.81;5114429;28;20039;-70
2021/12/18 05:55:15;;;;;;;6.38;4.32;;;;;;;12.81;54.22;102969.09;5113056;28;20096;-70
2021/12/18 05:57:42;;;;;;;6.63;4.03;;;;;;;12.79;54.38;102966.53;5112350;28;20078;-69
2021/12/18 06:00:11;;;;;;;9.80;6.15;;;;;;;12.04;55.89;102965.63;5112421;28;20123;-70
2021/12/18 06:02:37;;;;;;;6.07;4.07;;;;;;;12.52;55.10;102974.41;5113696;28;20547;-70
2021/12/18 06:05:05;;;;;;;6.15;3.60;;;;;;;12.72;54.27;102967.00;5113906;28;20402;-69
2021/12/18 06:07:39;;;;;;;6.13;3.88;;;;;;;12.67;54.36;102971.75;5112518;28;20138;-70
2021/12/18 06:10:05;;;;;;;6.10;3.90;;;;;;;12.81;54.19;102967.28;5115714;28;20070;-70
2021/12/18 06:12:32;;;;;;;6.50;3.80;;;;;;;12.80;53.94;102967.38;5114028;28;20123;-70
2021/12/18 06:14:58;;;;;;;5.22;3.67;;;;;;;12.88;54.08;102966.91;5114973;28;20365;-70
2021/12/18 06:17:27;;;;;;;6.78;3.70;;;;;;;12.53;55.00;102964.56;5115927;28;20097;-70
2021/12/18 06:19:53;;;;;;;6.22;3.72;;;;;;;12.72;54.15;102959.84;5118322;28;20122;-69
2021/12/18 06:22:20;;;;;;;7.75;4.07;;;;;;;12.91;53.83;102961.38;5120940;27;20074;-69
2021/12/18 06:24:46;;;;;;;6.13;4.05;;;;;;;12.89;53.97;102964.16;5110339;28;20495;-69
2021/12/18 06:27:13;;;;;;;6.63;3.78;;;;;;;12.85;54.01;102965.31;5120931;27;20064;-69
2021/12/18 06:29:41;;;;;;;6.70;4.07;;;;;;;12.85;54.06;102957.28;5122031;28;20070;-69
2021/12/18 06:32:08;;;;;;;5.43;3.40;;;;;;;12.67;54.76;102942.31;5119713;27;20040;-69
2021/12/18 06:34:34;;;;;;;6.28;4.03;;;;;;;12.85;54.23;102951.94;5120443;28;20062;-69
2021/12/18 06:37:01;;;;;;;5.10;3.53;;;;;;;12.92;54.06;102947.91;5120148;27;20043;-69
2021/12/18 06:39:27;;;;;;;6.82;3.70;;;;;;;12.99;53.64;102948.34;5120915;28;20063;-69
2021/12/18 06:41:54;;;;;;;7.03;4.20;;;;;;;12.54;54.80;102947.56;5117800;27;20126;-69
2021/12/18 06:44:20;;;;;;;7.57;3.95;;;;;;;12.60;54.60;102940.00;5120384;28;20047;-69
2021/12/18 06:46:47;;;;;;;7.43;4.65;;;;;;;12.77;54.16;102948.84;5119297;27;20523;-70
2021/12/18 06:49:13;;;;;;;5.85;4.10;;;;;;;12.83;54.12;102940.44;5120550;27;20053;-70
2021/12/18 06:51:40;;;;;;;7.57;3.95;;;;;;;12.98;53.82;102947.50;5119430;27;20499;-70
2021/12/18 06:54:06;;;;;;;4.78;3.63;;;;;;;12.17;55.72;102941.72;5118558;27;20039;-70
2021/12/18 06:56:33;;;;;;;5.18;3.20;;;;;;;12.48;55.03;102937.25;5119761;28;20126;-69
2021/12/18 06:58:59;;;;;;;5.50;3.33;;;;;;;12.66;54.40;102940.63;5121802;28;20059;-69
2021/12/18 07:01:26;;;;;;;4.93;3.05;;;;;;;12.83;53.90;102943.13;5119167;27;20460;-69
2021/12/18 07:03:52;;;;;;;5.80;3.85;;;;;;;12.61;54.42;102930.19;5120404;27;20130;-69
2021/12/18 07:06:19;;;;;;;6.72;3.72;;;;;;;12.61;54.81;102931.06;5120755;28;20063;-71
2021/12/18 07:08:46;;;;;;;5.40;3.60;;;;;;;12.84;53.85;102924.28;5120885;27;20066;-70
2021/12/18 07:11:13;;;;;;;6.20;4.07;;;;;;;12.26;55.86;102927.84;5120821;28;20456;-69
2021/12/18 07:13:39;;;;;;;5.80;3.83;;;;;;;12.81;54.32;102939.66;5120951;28;20050;-70
2021/12/18 07:16:06;;;;;;;6.45;4.22;;;;;;;12.68;54.79;102939.56;5122015;28;20042;-69
2021/12/18 07:18:33;;;;;;;7.20;4.38;;;;;;;12.80;54.62;102928.09;5121436;28;20078;-69
2021/12/18 07:20:59;;;;;;;6.65;4.13;;;;;;;12.46;55.50;102926.63;5121232;27;20044;-70
2021/12/18 07:23:26;;;;;;;7.03;4.43;;;;;;;12.40;55.81;102924.34;5119323;27;20071;-70
2021/12/18 07:25:52;;;;;;;6.63;5.43;;;;;;;11.75;57.56;102935.22;5118294;27;20056;-70
2021/12/18 07:28:19;;;;;;;10.20;6.63;;;;;;;11.20;59.46;102930.28;5119424;27;20061;-70
2021/12/18 07:30:47;;;;;;;7.60;5.50;;;;;;;12.14;57.08;102929.41;5118665;28;20075;-69
2021/12/18 07:33:14;;;;;;;8.38;5.65;;;;;;;12.42;55.76;102918.88;5115606;28;20047;-71
2021/12/18 07:35:41;;;;;;;8.00;4.95;;;;;;;12.42;55.64;102924.22;5117191;28;20096;-69
2021/12/18 07:38:07;;;;;;;5.75;4.07;;;;;;;12.46;55.24;102913.25;5117870;28;20150;-69
2021/12/18 07:40:35;;;;;;;5.43;3.90;;;;;;;12.46;55.12;102921.25;5118027;28;20062;-69
2021/12/18 07:43:02;;;;;;;7.07;4.32;;;;;;;12.59;54.73;102930.28;5118800;28;20061;-69
2021/12/18 07:45:33;;;;;;;5.03;3.83;;;;;;;12.45;54.88;102927.56;5118833;28;20074;-69
2021/12/18 07:48:01;;;;;;;6.33;4.30;;;;;;;12.54;54.72;102919.00;5118017;28;20051;-69
2021/12/18 07:50:28;;;;;;;6.45;4.05;;;;;;;12.63;54.75;102924.75;5118456;28;20270;-69
2021/12/18 07:52:54;;;;;;;4.97;3.10;;;;;;;12.76;54.03;102917.69;5117474;28;20043;-69
2021/12/18 07:55:21;;;;;;;4.65;3.25;;;;;;;12.32;55.01;102922.09;5117586;28;20068;-69
2021/12/18 07:57:50;;;;;;;3.85;2.58;;;;;;;12.31;55.12;102909.69;5117710;28;20059;-69
2021/12/18 08:00:17;;;;;;;4.53;2.38;;;;;;;12.38;54.63;102911.03;5116494;28;20448;-69
2021/12/18 08:02:44;;;;;;;3.72;2.00;;;;;;;12.08;54.84;102910.19;5116866;28;20046;-69
2021/12/18 08:05:11;;;;;;;3.50;2.40;;;;;;;12.36;54.45;102902.25;5116492;28;20077;-69
2021/12/18 08:07:37;;;;;;;5.10;2.40;;;;;;;12.56;53.71;102898.34;5118120;28;20139;-69
2021/12/18 08:10:04;;;;;;;4.22;2.50;;;;;;;12.42;54.06;102901.00;5116788;28;20391;-69
2021/12/18 08:12:31;;;;;;;4.05;2.42;;;;;;;12.09;55.49;102891.41;5116529;28;20063;-69
2021/12/18 08:14:58;;;;;;;4.50;2.55;;;;;;;12.51;54.48;102884.41;5118160;28;20123;-70
2021/12/18 08:17:26;;;;;;;5.63;2.85;;;;;;;12.33;54.52;102889.06;5117298;28;20066;-70
2021/12/18 08:19:52;;;;;;;6.38;3.10;;;;;;;12.41;54.72;102888.59;5116057;28;20074;-70
2021/12/18 08:22:19;;;;;;;5.50;3.03;;;;;;;12.59;54.28;102891.97;5118684;28;20195;-69
2021/12/18 08:24:45;;;;;;;5.05;3.50;;;;;;;12.49;54.45;102896.16;5118056;28;20126;-69
2021/12/18 08:27:12;;;;;;;5.25;3.00;;;;;;;12.39;55.20;102893.16;5117537;28;20051;-69
2021/12/18 08:29:39;;;;;;;4.28;2.80;;;;;;;12.57;54.47;102892.06;5117071;28;20047;-69
2021/12/18 08:32:06;;;;;;;5.13;3.03;;;;;;;12.72;54.21;102890.25;5117055;28;20441;-69
2021/12/18 08:34:33;;;;;;;6.28;3.28;;;;;;;12.64;54.13;102883.63;5116975;28;20051;-69
2021/12/18 08:36:59;;;;;;;6.65;4.10;;;;;;;12.63;54.43;102887.28;5115985;28;20130;-69
2021/12/18 08:39:26;;;;;;;7.72;4.50;;;;;;;12.28;55.21;102877.78;5118086;28;20051;-69
2021/12/18 08:41:54;;;;;;;6.15;4.28;;;;;;;12.48;54.86;102887.28;5115731;28;20127;-69
2021/12/18 08:44:20;;;;;;;6.00;4.38;;;;;;;12.68;54.32;102883.38;5117248;28;20075;-69
2021/12/18 08:46:47;;;;;;;6.03;4.00;;;;;;;12.57;54.46;102888.50;5116468;28;20058;-69
2021/12/18 08:49:13;;;;;;;5.90;3.97;;;;;;;11.80;56.61;102890.38;5115076;28;20107;-69
2021/12/18 08:51:40;;;;;;;5.15;3.22;;;;;;;12.21;55.49;102883.59;5117164;28;20450;-69
2021/12/18 08:54:07;;;;;;;3.47;2.38;;;;;;;11.80;55.58;102893.06;5115741;27;20066;-69
2021/12/18 08:56:34;;;;;;;3.65;2.38;;;;;;;11.83;56.02;102881.31;5116217;28;20503;-70
2021/12/18 08:59:00;;;;;;;3.65;2.30;;;;;;;12.51;54.02;102886.22;5115629;28;20399;-69
2021/12/18 09:01:30;;;;;;;4.40;2.90;;;;;;;12.58;53.55;102884.91;5116350;28;20074;-69
2021/12/18 09:03:56;;;;;;;4.32;3.53;;;;;;;12.91;52.81;102887.28;5115861;28;20122;-69
2021/12/18 09:06:24;;;;;;;5.20;3.10;;;;;;;12.73;52.97;102891.09;5119518;28;20452;-69
2021/12/18 09:08:51;;;;;;;3.08;2.22;;;;;;;12.63;53.36;102892.63;5118400;28;20067;-69
2021/12/18 09:11:18;;;;;;;6.35;3.17;;;;;;;12.35;54.47;102888.97;5115817;28;20067;-69
2021/12/18 09:13:45;;;;;;;9.45;2.50;;;;;;;12.58;53.74;102891.09;5118753;28;20079;-69
2021/12/18 09:16:16;;;;;;;8.70;3.17;;;;;;;12.44;54.54;102887.56;5119859;28;20093;-69
2021/12/18 09:18:43;;;;;;;4.10;2.83;;;;;;;12.35;54.71;102883.63;5117376;28;20074;-69
2021/12/18 09:21:09;;;;;;;9.48;2.72;;;;;;;12.92;53.36;102886.34;5117954;28;20439;-69
2021/12/18 09:23:36;;;;;;;8.48;3.85;;;;;;;12.50;54.51;102884.47;5119122;28;20123;-69
2021/12/18 09:26:02;;;;;;;6.38;3.30;;;;;;;12.51;54.33;102876.38;5116021;28;20202;-69
2021/12/18 09:28:29;;;;;;;6.57;3.55;;;;;;;12.85;53.76;102868.94;5116549;28;20051;-70
2021/12/18 09:30:55;;;;;;;6.15;3.40;;;;;;;12.88;53.40;102871.41;5116959;28;20130;-69
2021/12/18 09:33:22;;;;;;;13.65;3.25;;;;;;;13.30;52.47;102864.28;5116198;28;20073;-70
2021/12/18 09:35:49;;;;;;;11.73;3.50;;;;;;;13.29;52.38;102866.13;5115104;28;20067;-69
2021/12/18 09:38:15;;;;;;;11.60;3.75;;;;;;;13.45;52.14;102871.34;5115820;28;20063;-70
2021/12/18 09:40:42;;;;;;;9.98;5.38;;;;;;;13.42;52.33;102863.50;5114149;28;20051;-70
2021/12/18 09:43:08;;;;;;;13.77;7.68;;;;;;;13.61;52.19;102862.28;5115403;28;20135;-70
2021/12/18 09:45:36;;;;;;;9.85;3.88;;;;;;;12.98;54.05;102861.84;5113150;28;20043;-70
2021/12/18 09:48:04;;;;;;;12.88;3.75;;;;;;;13.21;53.43;102862.19;5096499;28;20063;-70
2021/12/18 09:50:34;;;;;;;9.40;4.63;;;;;;;13.30;53.14;102859.81;5114543;28;20048;-70
2021/12/18 09:53:01;;;;;;;7.78;4.20;;;;;;;13.14;53.83;102852.84;5114126;28;20423;-70
2021/12/18 09:55:27;;;;;;;15.35;5.43;;;;;;;13.52;53.07;102855.72;5112201;28;20047;-70
2021/12/18 09:57:54;;;;;;;12.00;4.45;;;;;;;13.31;53.78;102849.97;5114770;28;20126;-70
2021/12/18 10:00:23;;;;;;;9.05;3.97;;;;;;;13.36;53.66;102846.97;5115656;28;20526;-69
2021/12/18 10:02:51;;;;;;;12.80;4.80;;;;;;;13.21;54.14;102848.81;5115952;28;20044;-69
2021/12/18 10:05:22;;;;;;;8.63;4.47;;;;;;;13.08;54.70;102841.53;5115417;28;20048;-70
2021/12/18 10:08:10;;;;;;;11.52;4.63;;;;;;;13.48;53.41;102840.81;5115484;28;20043;-70
2021/12/18 10:10:38;;;;;;;10.77;4.65;;;;;;;13.42;53.99;102836.72;5116566;28;20562;-70
2021/12/18 10:13:08;;;;;;;14.02;5.57;;;;;;;13.21;55.03;102830.06;5116591;28;20067;-70
2021/12/18 10:15:37;;;;;;;10.73;4.50;;;;;;;13.34;54.28;102825.66;5114980;28;20127;-70
2021/12/18 10:18:12;;;;;;;8.85;3.95;;;;;;;13.48;54.03;102824.75;5115783;28;20055;-70
2021/12/18 10:20:39;;;;;;;9.75;3.75;;;;;;;13.46;54.08;102824.84;5116118;28;20039;-70
2021/12/18 10:23:06;;;;;;;6.32;3.38;;;;;;;13.26;54.82;102830.63;5117112;28;20068;-70
2021/12/18 10:25:42;;;;;;;11.43;3.80;;;;;;;13.18;55.14;102830.25;5117425;28;20146;-69
2021/12/18 10:28:18;;;;;;;6.50;3.78;;;;;;;13.03;55.68;102826.75;5116287;28;20092;-69
2021/12/18 10:30:48;;;;;;;7.90;3.72;;;;;;;13.30;54.82;102816.06;5114785;28;20059;-68
2021/12/18 10:33:15;;;;;;;6.57;3.55;;;;;;;12.88;55.93;102817.88;5114033;28;20116;-69
2021/12/18 10:35:50;;;;;;;8.30;4.00;;;;;;;12.91;55.97;102817.69;5118153;28;20107;-68
2021/12/18 10:38:48;;;;;;;8.60;3.45;;;;;;;13.29;54.71;102806.34;5116729;28;20107;-68
2021/12/18 10:41:20;;;;;;;9.80;3.53;;;;;;;13.46;54.56;102807.91;5116394;28;20052;-68
2021/12/18 10:44:00;;;;;;;5.38;2.70;;;;;;;13.24;55.37;102800.44;5117342;28;20047;-69
2021/12/18 10:46:28;;;;;;;7.18;3.60;;;;;;;13.37;55.07;102801.34;5115971;28;20514;-69
2021/12/18 10:48:57;;;;;;;8.30;3.75;;;;;;;13.43;54.96;102786.66;5114971;28;20043;-68
2021/12/18 10:51:24;;;;;;;7.57;3.35;;;;;;;13.29;55.10;102791.13;5115713;28;20063;-68
2021/12/18 10:53:52;;;;;;;9.07;3.30;;;;;;;13.47;54.32;102785.50;5115072;28;20062;-68
2021/12/18 10:56:38;;;;;;;8.07;3.65;;;;;;;13.37;54.14;102779.91;5116673;28;20067;-68
2021/12/18 10:59:17;;;;;;;5.25;3.00;;;;;;;12.47;57.33;102783.03;5116779;28;20082;-68
2021/12/18 11:01:49;;;;;;;5.10;2.53;;;;;;;12.52;56.85;102783.59;5114681;28;20130;-68
2021/12/18 11:04:22;;;;;;;5.47;2.67;;;;;;;12.71;56.70;102778.81;5116901;28;20047;-69
2021/12/18 11:06:49;;;;;;;4.43;2.60;;;;;;;12.71;56.07;102762.78;5119938;28;20039;-68
2021/12/18 11:09:17;;;;;;;4.53;2.30;;;;;;;12.71;56.77;102759.19;5120848;28;20050;-70
2021/12/18 11:14:19;;;;;;;5.90;2.80;;;;;;;13.44;54.72;102742.84;5118100;28;20122;-70
2021/12/18 11:16:52;;;;;;;7.15;3.03;;;;;;;13.05;55.84;102742.69;5117161;28;20044;-69
2021/12/18 11:19:21;;;;;;;11.77;4.43;;;;;;;13.31;55.25;102740.13;5117340;28;20075;-69
2021/12/18 11:21:51;;;;;;;6.10;3.33;;;;;;;13.26;55.43;102739.56;5117288;28;20044;-69
2021/12/18 11:24:20;;;;;;;6.68;3.35;;;;;;;12.83;56.97;102729.84;5117349;28;20142;-69
2021/12/18 11:26:55;;;;;;;8.15;3.85;;;;;;;13.01;56.38;102734.97;5117751;28;20130;-69
2021/12/18 11:29:44;;;;;;;8.82;3.60;;;;;;;12.88;56.73;102732.22;5118207;28;20054;-69
2021/12/18 11:32:15;;;;;;;5.22;2.83;;;;;;;12.65;57.01;102730.19;5117404;28;20060;-69
2021/12/18 11:34:43;;;;;;;6.90;2.97;;;;;;;12.61;57.01;102732.22;5108180;28;20055;-69
2021/12/18 11:37:12;;;;;;;6.55;2.90;;;;;;;12.99;55.73;102724.38;5118918;28;20063;-69
2021/12/18 11:39:40;;;;;;;4.55;2.60;;;;;;;12.38;57.70;102718.47;5117393;28;20067;-70
2021/12/18 11:42:08;;;;;;;3.25;2.35;;;;;;;12.87;55.97;102716.25;5118043;28;20110;-69
2021/12/18 11:44:51;;;;;;;4.45;2.38;;;;;;;13.16;55.24;102722.38;5117474;28;20131;-70
2021/12/18 11:47:33;;;;;;;6.78;2.53;;;;;;;12.94;55.28;102712.22;5117158;28;20070;-69
2021/12/18 11:50:03;;;;;;;2.65;1.85;;;;;;;12.96;55.24;102708.50;5117336;28;20077;-69
2021/12/18 11:52:49;;;;;;;2.92;1.65;;;;;;;13.06;54.84;102698.91;5097920;28;20127;-69
2021/12/18 11:55:16;;;;;;;2.88;1.67;;;;;;;13.46;53.82;102701.59;5117151;28;20484;-70
2021/12/18 11:57:49;;;;;;;3.75;2.05;;;;;;;13.26;54.30;102704.75;5120143;28;20059;-70
2021/12/18 12:00:18;;;;;;;3.38;1.75;;;;;;;13.22;54.62;102708.56;5119379;28;20143;-69
2021/12/18 12:02:50;;;;;;;3.42;1.42;;;;;;;12.52;56.58;102696.19;5117994;27;20043;-69
2021/12/18 12:05:20;;;;;;;4.32;1.80;;;;;;;13.51;53.85;102699.47;5117954;28;20040;-71
2021/12/18 12:07:50;;;;;;;2.70;1.80;;;;;;;13.56;53.48;102700.00;5116976;27;20040;-70
2021/12/18 12:10:35;;;;;;;3.70;1.98;;;;;;;13.16;54.13;102692.91;5117019;28;20111;-70